Time;durP1;ratioP1;P1;durP2;ratioP2;P2;SDS_P1;SDS_P2;PMS_P1;PMS_P2;Temp;Humidity;BMP_temperature;BMP_pressure;BME280_temperature;BME280_humidity;BME280_pressure;Samples;Min_cycle;Max_cycle;Signal;HPM_P1;HPM_P2
2022/10/28 00:00:24;;;;;;;;;;;;;;;21.46;66.15;98274.96;578825;245;63046;-68
2022/10/28 00:02:52;;;;;;;;;;;;;;;21.46;66.20;98269.62;580874;243;64821;-68
2022/10/28 00:05:19;;;;;;;;;;;;;;;21.46;66.61;98274.96;583710;243;64765;-68
2022/10/28 00:07:47;;;;;;;;;;;;;;;21.45;66.52;98276.03;583693;243;62916;-69
2022/10/28 00:10:14;;;;;;;;;;;;;;;21.45;66.43;98265.33;583737;243;64555;-68
2022/10/28 00:12:42;;;;;;;;;;;;;;;21.45;66.23;98273.36;583635;243;65263;-68
2022/10/28 00:15:09;;;;;;;;;;;;;;;21.45;65.87;98276.03;583680;243;62984;-68
2022/10/28 00:17:37;;;;;;;;;;;;;;;21.45;66.21;98269.88;583662;243;65086;-68
2022/10/28 00:20:04;;;;;;;;;;;;;;;21.45;66.58;98273.36;583700;243;64822;-68
2022/10/28 00:22:32;;;;;;;;;;;;;;;21.44;65.77;98273.58;583709;243;65165;-68
2022/10/28 00:24:59;;;;;;;;;;;;;;;21.44;65.57;98274.42;583690;243;67286;-68
2022/10/28 00:27:28;;;;;;;;;;;;;;;21.44;65.92;98271.75;583700;243;67099;-68
2022/10/28 00:29:56;;;;;;;;;;;;;;;21.44;65.75;98269.07;583707;243;65111;-69
2022/10/28 00:32:24;;;;;;;;;;;;;;;21.45;66.90;98269.88;583706;243;66812;-69
2022/10/28 00:34:51;;;;;;;;;;;;;;;21.44;65.92;98265.56;583706;243;67077;-69
2022/10/28 00:37:19;;;;;;;;;;;;;;;21.44;66.54;98260.21;583713;243;65072;-69
2022/10/28 00:39:46;;;;;;;;;;;;;;;21.43;66.16;98264.76;583715;243;67470;-69
2022/10/28 00:42:15;;;;;;;;;;;;;;;21.44;66.30;98265.56;583700;243;67138;-69
2022/10/28 00:44:59;;;;;;;;;;;;;;;21.42;65.80;98263.14;583707;243;65880;-69
2022/10/28 00:47:41;;;;;;;;;;;;;;;21.43;66.11;98262.08;583706;243;64951;-68
2022/10/28 00:50:26;;;;;;;;;;;;;;;21.42;65.94;98265.83;583707;243;66770;-68
2022/10/28 00:52:55;;;;;;;;;;;;;;;21.43;66.71;98263.95;583708;243;65576;-68
2022/10/28 00:55:23;;;;;;;;;;;;;;;21.41;66.14;98261.51;583705;243;67240;-68
2022/10/28 00:57:55;;;;;;;;;;;;;;;21.41;66.49;98261.51;583709;243;67035;-68
2022/10/28 01:00:22;;;;;;;;;;;;;;;21.40;65.84;98270.59;583687;243;62974;-68
2022/10/28 01:02:50;;;;;;;;;;;;;;;21.42;67.91;98267.69;583671;243;64975;-68
2022/10/28 01:05:19;;;;;;;;;;;;;;;21.41;66.76;98268.73;583691;243;65113;-68
2022/10/28 01:07:46;;;;;;;;;;;;;;;21.39;65.87;98266.31;583734;243;65250;-69
2022/10/28 01:10:14;;;;;;;;;;;;;;;21.40;65.92;98264.44;583695;243;67480;-68
2022/10/28 01:12:53;;;;;;;;;;;;;;;21.40;67.08;98267.92;583701;243;67196;-68
2022/10/28 01:15:31;;;;;;;;;;;;;;;21.40;65.98;98270.59;583713;243;63064;-68
2022/10/28 01:18:09;;;;;;;;;;;;;;;21.40;65.74;98267.92;583382;243;68072;-69
2022/10/28 01:20:54;;;;;;;;;;;;;;;21.39;67.61;98263.64;583736;243;66931;-68
2022/10/28 01:23:24;;;;;;;;;;;;;;;21.39;68.50;98268.98;583713;243;63178;-68
2022/10/28 01:26:08;;;;;;;;;;;;;;;21.38;67.36;98267.34;583709;243;67348;-68
2022/10/28 01:28:49;;;;;;;;;;;;;;;21.38;67.05;98266.54;583666;243;67360;-68
2022/10/28 01:31:22;;;;;;;;;;;;;;;21.37;66.97;98270.25;583719;243;65256;-68
2022/10/28 01:33:51;;;;;;;;;;;;;;;21.36;67.59;98263.26;583510;243;67350;-68
2022/10/28 01:36:20;;;;;;;;;;;;;;;21.36;67.97;98264.09;583676;243;67110;-66
2022/10/28 01:38:52;;;;;;;;;;;;;;;21.35;68.32;98267.80;579712;243;65179;-66
2022/10/28 01:41:21;;;;;;;;;;;;;;;21.36;68.10;98266.77;583750;243;67234;-66
2022/10/28 01:44:09;;;;;;;;;;;;;;;21.34;68.13;98260.84;582837;243;67029;-66
2022/10/28 01:46:47;;;;;;;;;;;;;;;21.35;68.01;98275.83;583723;243;63735;-66
2022/10/28 01:49:16;;;;;;;;;;;;;;;21.34;68.15;98266.20;583653;243;64753;-66
2022/10/28 01:51:45;;;;;;;;;;;;;;;21.34;67.93;98274.22;583544;243;65027;-66
2022/10/28 01:54:14;;;;;;;;;;;;;;;21.34;68.01;98266.20;583644;243;67178;-66
2022/10/28 01:56:43;;;;;;;;;;;;;;;21.33;67.77;98266.42;583739;243;65295;-66
2022/10/28 01:59:12;;;;;;;;;;;;;;;21.33;68.51;98264.55;583689;243;66965;-66
2022/10/28 02:01:39;;;;;;;;;;;;;;;21.33;68.26;98269.91;583686;243;63053;-66
2022/10/28 02:04:07;;;;;;;;;;;;;;;21.33;67.80;98272.58;583686;243;64906;-66
2022/10/28 02:06:34;;;;;;;;;;;;;;;21.33;66.84;98269.91;583693;243;64871;-65
2022/10/28 02:09:06;;;;;;;;;;;;;;;21.33;68.12;98271.77;583754;243;63023;-66
2022/10/28 02:11:38;;;;;;;;;;;;;;;21.32;67.98;98273.64;583725;243;67274;-66
2022/10/28 02:14:07;;;;;;;;;;;;;;;21.33;67.79;98271.77;583662;243;67100;-66
2022/10/28 02:16:42;;;;;;;;;;;;;;;21.33;68.37;98279.80;583497;243;64958;-66
2022/10/28 02:19:28;;;;;;;;;;;;;;;21.32;68.08;98272.84;583695;243;65066;-66
2022/10/28 02:22:03;;;;;;;;;;;;;;;21.32;68.18;98270.16;583679;243;67105;-66
2022/10/28 02:24:49;;;;;;;;;;;;;;;21.31;68.38;98268.52;583436;243;65032;-66
2022/10/28 02:27:18;;;;;;;;;;;;;;;21.31;68.04;98276.55;583720;243;67252;-66
2022/10/28 02:29:46;;;;;;;;;;;;;;;21.31;68.27;98274.70;583577;243;66900;-66
2022/10/28 02:32:15;;;;;;;;;;;;;;;21.31;67.48;98277.38;583699;243;65170;-66
2022/10/28 02:34:45;;;;;;;;;;;;;;;21.31;67.14;98280.05;583659;243;67234;-66
2022/10/28 02:37:14;;;;;;;;;;;;;;;21.30;68.17;98278.41;583743;243;64666;-66
2022/10/28 02:39:43;;;;;;;;;;;;;;;21.29;67.83;98279.48;583465;243;62941;-68
2022/10/28 02:42:15;;;;;;;;;;;;;;;21.30;67.99;98275.73;583671;243;67303;-68
2022/10/28 02:44:44;;;;;;;;;;;;;;;21.29;67.64;98284.83;582446;243;67407;-68
2022/10/28 02:47:13;;;;;;;;;;;;;;;21.28;68.39;98281.34;583550;243;65095;-68
2022/10/28 02:49:58;;;;;;;;;;;;;;;21.29;68.10;98284.83;583629;243;69448;-69
2022/10/28 02:52:27;;;;;;;;;;;;;;;21.28;67.39;98286.69;583755;243;65022;-68
2022/10/28 02:54:57;;;;;;;;;;;;;;;21.28;68.18;98285.89;583673;243;64914;-68
2022/10/28 02:57:26;;;;;;;;;;;;;;;21.26;67.22;98282.64;583634;243;64957;-68
2022/10/28 02:59:54;;;;;;;;;;;;;;;21.28;67.95;98288.56;583684;243;64960;-68
2022/10/28 03:02:22;;;;;;;;;;;;;;;21.26;68.11;98286.11;583665;243;65148;-68
2022/10/28 03:04:50;;;;;;;;;;;;;;;21.26;68.51;98279.96;583706;243;67038;-69
2022/10/28 03:07:18;;;;;;;;;;;;;;;21.27;68.00;98284.25;583738;243;66981;-68
2022/10/28 03:09:45;;;;;;;;;;;;;;;21.27;68.17;98289.59;583662;243;65177;-68
2022/10/28 03:12:13;;;;;;;;;;;;;;;21.26;68.52;98285.31;583700;243;65047;-68
2022/10/28 03:14:41;;;;;;;;;;;;;;;21.25;67.93;98283.67;583678;243;67081;-68
2022/10/28 03:17:09;;;;;;;;;;;;;;;21.25;68.28;98283.67;583692;243;65063;-68
2022/10/28 03:19:36;;;;;;;;;;;;;;;21.26;67.61;98287.98;583739;243;67195;-68
2022/10/28 03:22:04;;;;;;;;;;;;;;;21.25;68.20;98278.33;583696;243;67138;-68
2022/10/28 03:24:31;;;;;;;;;;;;;;;21.25;67.74;98279.16;583689;243;65142;-68
2022/10/28 03:26:58;;;;;;;;;;;;;;;21.25;67.08;98278.33;583690;243;67404;-68
2022/10/28 03:29:26;;;;;;;;;;;;;;;21.25;67.82;98275.65;583711;243;67113;-68
2022/10/28 03:31:53;;;;;;;;;;;;;;;21.24;67.90;98276.71;583710;243;65078;-68
2022/10/28 03:34:21;;;;;;;;;;;;;;;21.24;66.73;98274.84;583648;243;67214;-68
2022/10/28 03:36:49;;;;;;;;;;;;;;;21.25;68.96;98267.62;583645;243;67183;-68
2022/10/28 03:39:16;;;;;;;;;;;;;;;21.24;68.01;98271.37;583692;243;63007;-68
2022/10/28 03:41:44;;;;;;;;;;;;;;;21.23;68.72;98267.08;583647;243;64938;-68
2022/10/28 03:44:11;;;;;;;;;;;;;;;21.21;67.10;98264.64;583744;243;65020;-69
2022/10/28 03:46:38;;;;;;;;;;;;;;;21.23;67.52;98269.76;583692;243;65092;-68
2022/10/28 03:49:06;;;;;;;;;;;;;;;21.22;67.98;98271.59;583708;243;67277;-68
2022/10/28 03:51:33;;;;;;;;;;;;;;;21.22;67.89;98276.14;583726;243;66568;-68
2022/10/28 03:54:01;;;;;;;;;;;;;;;21.22;67.17;98273.46;583659;243;63127;-68
2022/10/28 03:56:28;;;;;;;;;;;;;;;21.22;68.21;98276.94;583746;243;64643;-68
2022/10/28 03:58:56;;;;;;;;;;;;;;;21.21;68.17;98272.66;583686;243;64948;-68
2022/10/28 04:01:23;;;;;;;;;;;;;;;21.21;67.91;98267.31;583696;243;62850;-68
2022/10/28 04:03:51;;;;;;;;;;;;;;;21.22;68.55;98268.12;583683;243;64572;-68
2022/10/28 04:06:18;;;;;;;;;;;;;;;21.20;68.29;98276.39;583726;243;64839;-68
2022/10/28 04:08:46;;;;;;;;;;;;;;;21.21;68.23;98277.20;583690;243;63822;-68
2022/10/28 04:11:13;;;;;;;;;;;;;;;21.21;68.81;98269.18;583759;243;66886;-69
2022/10/28 04:13:41;;;;;;;;;;;;;;;21.21;68.41;98277.20;583693;243;66988;-69
2022/10/28 04:16:08;;;;;;;;;;;;;;;21.20;67.97;98276.39;583703;243;65054;-68
2022/10/28 04:18:35;;;;;;;;;;;;;;;21.21;68.49;98278.01;583673;243;67013;-69
2022/10/28 04:21:04;;;;;;;;;;;;;;;21.19;68.27;98280.10;583677;243;67070;-68
2022/10/28 04:23:49;;;;;;;;;;;;;;;21.20;68.37;98280.94;583666;243;65226;-69
2022/10/28 04:26:17;;;;;;;;;;;;;;;21.19;68.64;98279.30;583704;243;67482;-69
2022/10/28 04:28:44;;;;;;;;;;;;;;;21.19;67.91;98280.10;583688;243;67140;-69
2022/10/28 04:31:12;;;;;;;;;;;;;;;21.19;68.52;98284.64;583646;243;62903;-68
2022/10/28 04:33:41;;;;;;;;;;;;;;;21.18;68.07;98286.52;583639;243;67685;-69
2022/10/28 04:36:09;;;;;;;;;;;;;;;21.18;68.16;98280.36;583677;243;67189;-70
2022/10/28 04:38:39;;;;;;;;;;;;;;;21.18;67.92;98280.36;583706;243;65083;-69
2022/10/28 04:41:08;;;;;;;;;;;;;;;21.18;68.45;98280.36;583710;243;67239;-69
2022/10/28 04:43:36;;;;;;;;;;;;;;;21.18;67.54;98283.03;583687;243;66889;-69
2022/10/28 04:46:04;;;;;;;;;;;;;;;21.17;67.81;98278.72;583665;243;65061;-69
2022/10/28 04:48:33;;;;;;;;;;;;;;;21.16;67.81;98288.61;583645;243;67284;-69
2022/10/28 04:51:00;;;;;;;;;;;;;;;21.17;67.89;98281.39;583721;243;64870;-69
2022/10/28 04:53:28;;;;;;;;;;;;;;;21.16;67.08;98274.44;583677;243;64943;-69
2022/10/28 04:55:58;;;;;;;;;;;;;;;21.17;68.29;98281.39;583675;243;67224;-69
2022/10/28 04:58:26;;;;;;;;;;;;;;;21.16;68.14;98288.61;583684;243;67058;-69
2022/10/28 05:00:54;;;;;;;;;;;;;;;21.16;67.74;98293.15;583651;243;65012;-69
2022/10/28 05:03:21;;;;;;;;;;;;;;;21.16;67.86;98290.48;580583;243;67161;-69
2022/10/28 05:05:48;;;;;;;;;;;;;;;21.16;68.16;98295.82;578827;245;67017;-69
2022/10/28 05:08:16;;;;;;;;;;;;;;;21.16;68.17;98293.95;578797;245;62787;-69
2022/10/28 05:10:47;;;;;;;;;;;;;;;21.16;68.27;98279.78;578790;245;64993;-69
2022/10/28 05:13:12;;;;;;;;;;;;;;;21.15;67.88;98287.00;578745;245;67445;-69
2022/10/28 05:15:40;;;;;;;;;;;;;;;21.17;68.34;98286.73;578870;245;65027;-69
2022/10/28 05:18:07;;;;;;;;;;;;;;;21.16;67.93;98277.11;578822;245;67220;-69
2022/10/28 05:20:35;;;;;;;;;;;;;;;21.17;67.95;98286.73;578839;245;66904;-69
2022/10/28 05:23:02;;;;;;;;;;;;;;;21.17;68.27;98292.09;578820;245;65109;-69
2022/10/28 05:25:30;;;;;;;;;;;;;;;21.16;67.29;98293.95;578790;245;67369;-69
2022/10/28 05:27:59;;;;;;;;;;;;;;;21.17;66.99;98294.76;578812;245;67071;-69
2022/10/28 05:30:27;;;;;;;;;;;;;;;21.18;66.80;98301.75;578852;245;62966;-68
2022/10/28 05:33:01;;;;;;;;;;;;;;;21.17;67.82;98297.43;578814;245;66982;-68
2022/10/28 05:35:30;;;;;;;;;;;;;;;21.18;66.55;98296.40;578798;245;67157;-68
2022/10/28 05:37:58;;;;;;;;;;;;;;;21.19;68.09;98300.69;578803;245;65260;-68
2022/10/28 05:40:25;;;;;;;;;;;;;;;21.18;67.08;98302.55;580348;242;67524;-68
2022/10/28 05:42:53;;;;;;;;;;;;;;;21.18;66.72;98304.42;584611;242;66866;-68
2022/10/28 05:45:20;;;;;;;;;;;;;;;21.19;66.74;98306.03;584415;242;65228;-68
2022/10/28 05:47:48;;;;;;;;;;;;;;;21.19;66.89;98306.84;583701;242;67330;-68
2022/10/28 05:50:17;;;;;;;;;;;;;;;21.21;66.73;98314.63;584497;242;64891;-68
2022/10/28 05:52:46;;;;;;;;;;;;;;;21.21;66.43;98303.94;584654;242;65029;-73
2022/10/28 05:55:14;;;;;;;;;;;;;;;21.20;66.76;98313.83;584718;242;67119;-68
2022/10/28 05:57:41;;;;;;;;;;;;;;;21.21;67.00;98311.95;584672;242;67087;-69
2022/10/28 06:00:10;;;;;;;;;;;;;;;21.18;59.35;98312.44;584658;242;65059;-67
2022/10/28 06:02:40;;;;;;;;;;;;;;;21.20;64.12;98316.50;585530;241;67215;-71
2022/10/28 06:05:09;;;;;;;;;;;;;;;21.22;65.60;98321.58;587222;241;66914;-71
2022/10/28 06:07:37;;;;;;;;;;;;;;;21.22;64.75;98321.58;587198;241;62687;-69
2022/10/28 06:10:05;;;;;;;;;;;;;;;21.22;64.62;98321.58;587257;241;64936;-71
2022/10/28 06:12:33;;;;;;;;;;;;;;;21.22;66.06;98325.06;587214;241;65065;-68
2022/10/28 06:15:00;;;;;;;;;;;;;;;21.22;66.63;98316.23;587224;241;62817;-69
2022/10/28 06:17:28;;;;;;;;;;;;;;;21.22;66.01;98326.94;587230;241;64961;-71
2022/10/28 06:19:55;;;;;;;;;;;;;;;21.23;67.31;98324.03;587219;241;64866;-69
2022/10/28 06:22:23;;;;;;;;;;;;;;;21.24;65.00;98324.84;587240;241;62946;-68
2022/10/28 06:24:50;;;;;;;;;;;;;;;21.25;62.45;98323.77;587232;241;66142;-72
2022/10/28 06:27:19;;;;;;;;;;;;;;;21.28;64.98;98326.80;586502;241;67336;-68
2022/10/28 06:29:46;;;;;;;;;;;;;;;21.31;62.56;98330.02;588644;240;65137;-68
2022/10/28 06:32:14;;;;;;;;;;;;;;;21.32;65.08;98323.64;590070;240;67246;-67
2022/10/28 06:34:41;;;;;;;;;;;;;;;21.34;64.46;98322.34;590025;240;66885;-67
2022/10/28 06:37:09;;;;;;;;;;;;;;;21.34;60.21;98324.22;590062;240;63039;-72
2022/10/28 06:39:39;;;;;;;;;;;;;;;21.37;61.05;98323.73;590161;240;67265;-66
2022/10/28 06:42:07;;;;;;;;;;;;;;;21.40;63.62;98323.27;590026;240;67221;-69
2022/10/28 06:44:35;;;;;;;;;;;;;;;21.40;59.80;98323.27;590122;240;65250;-71
2022/10/28 06:47:04;;;;;;;;;;;;;;;21.43;58.41;98328.94;589991;240;66992;-67
2022/10/28 06:49:31;;;;;;;;;;;;;;;21.45;59.30;98321.50;590110;240;67039;-70
2022/10/28 06:51:59;;;;;;;;;;;;;;;21.48;58.10;98318.33;590060;240;65042;-68
2022/10/28 06:54:26;;;;;;;;;;;;;;;21.55;58.52;98320.03;590104;240;67518;-69
2022/10/28 06:56:53;;;;;;;;;;;;;;;21.58;58.39;98319.54;590065;240;67083;-69
2022/10/28 06:59:21;;;;;;;;;;;;;;;21.62;58.80;98318.82;590092;240;63014;-69
2022/10/28 07:01:48;;;;;;;;;;;;;;;21.65;58.20;98321.01;590150;240;64901;-69
2022/10/28 07:04:16;;;;;;;;;;;;;;;21.67;58.47;98320.78;590022;240;64915;-71
2022/10/28 07:06:43;;;;;;;;;;;;;;;21.69;57.77;98306.10;590104;240;62868;-71
2022/10/28 07:09:13;;;;;;;;;;;;;;;21.73;57.90;98306.42;590106;240;65019;-71
2022/10/28 07:11:45;;;;;;;;;;;;;;;21.76;57.60;98313.95;589891;240;64950;-70
2022/10/28 07:14:10;;;;;;;;;;;;;;;21.78;57.43;98303.82;580606;240;65114;-70
2022/10/28 07:16:37;;;;;;;;;;;;;;;21.82;57.23;98309.48;580464;244;64962;-70
2022/10/28 07:19:06;;;;;;;;;;;;;;;21.83;58.26;98309.25;580530;244;64935;-70
2022/10/28 07:21:34;;;;;;;;;;;;;;;21.86;57.34;98311.44;580541;244;65128;-68
2022/10/28 07:24:01;;;;;;;;;;;;;;;21.89;57.81;98305.59;580452;244;64775;-71
2022/10/28 07:26:29;;;;;;;;;;;;;;;21.90;57.55;98309.87;580532;244;66908;-69
2022/10/28 07:28:56;;;;;;;;;;;;;;;21.93;57.96;98306.73;580546;244;65211;-70
2022/10/28 07:31:26;;;;;;;;;;;;;;;21.96;57.76;98305.41;580514;244;67069;-70
2022/10/28 07:33:53;;;;;;;;;;;;;;;21.97;57.60;98299.02;580570;244;66814;-73
2022/10/28 07:36:21;;;;;;;;;;;;;;;21.99;56.96;98304.94;580523;244;65057;-73
2022/10/28 07:38:50;;;;;;;;;;;;;;;22.01;57.41;98302.00;580537;244;67089;-70
2022/10/28 07:41:19;;;;;;;;;;;;;;;22.03;58.00;98294.54;580551;244;65592;-69
2022/10/28 07:43:47;;;;;;;;;;;;;;;22.04;57.41;98290.80;580576;244;63162;-69
2022/10/28 07:46:15;;;;;;;;;;;;;;;22.06;57.59;98294.05;580466;244;64960;-67
2022/10/28 07:48:43;;;;;;;;;;;;;;;22.07;57.31;98291.13;580590;244;64988;-69
2022/10/28 07:51:12;;;;;;;;;;;;;;;22.09;58.04;98294.35;580574;244;62986;-68
2022/10/28 07:53:40;;;;;;;;;;;;;;;22.11;57.85;98297.60;580499;244;67266;-68
2022/10/28 07:56:09;;;;;;;;;;;;;;;22.12;57.75;98287.70;580554;244;66893;-69
2022/10/28 07:58:36;;;;;;;;;;;;;;;22.13;58.03;98276.75;580582;244;63961;-66
2022/10/28 08:01:05;;;;;;;;;;;;;;;22.14;57.56;98274.88;580510;244;64327;-67
2022/10/28 08:03:32;;;;;;;;;;;;;;;22.15;59.26;98273.81;580588;244;66797;-67
2022/10/28 08:06:01;;;;;;;;;;;;;;;22.16;58.55;98278.93;580572;244;65101;-70
2022/10/28 08:08:29;;;;;;;;;;;;;;;22.17;57.85;98274.38;580310;244;67183;-70
2022/10/28 08:10:56;;;;;;;;;;;;;;;22.18;57.75;98270.69;580579;244;66803;-70
2022/10/28 08:13:24;;;;;;;;;;;;;;;22.19;58.18;98261.59;580558;244;65067;-72
2022/10/28 08:15:53;;;;;;;;;;;;;;;22.21;59.40;98259.48;580573;244;66934;-71
2022/10/28 08:18:21;;;;;;;;;;;;;;;22.21;57.75;98267.52;580350;244;64548;-71
2022/10/28 08:20:49;;;;;;;;;;;;;;;22.23;57.61;98261.89;580531;244;65093;-71
2022/10/28 08:23:16;;;;;;;;;;;;;;;22.24;58.39;98258.18;580549;244;67290;-71
2022/10/28 08:25:48;;;;;;;;;;;;;;;22.22;60.31;98250.38;580547;244;67082;-71
2022/10/28 08:28:16;;;;;;;;;;;;;;;22.23;59.27;98254.67;580163;244;63021;-71
2022/10/28 08:30:45;;;;;;;;;;;;;;;22.26;58.01;98254.20;584684;240;65130;-73
2022/10/28 08:33:12;;;;;;;;;;;;;;;22.25;57.41;98247.20;589946;240;67117;-72
2022/10/28 08:35:41;;;;;;;;;;;;;;;22.27;58.07;98255.80;589890;240;64921;-73
2022/10/28 08:38:08;;;;;;;;;;;;;;;22.27;57.18;98258.48;589901;240;64928;-72
2022/10/28 08:40:44;;;;;;;;;;;;;;;22.28;58.93;98257.41;585000;240;64944;-73
2022/10/28 08:43:13;;;;;;;;;;;;;;;22.29;59.01;98256.37;589943;240;64992;-70
2022/10/28 08:45:42;;;;;;;;;;;;;;;22.31;59.22;98259.59;588981;240;67069;-70
2022/10/28 08:48:20;;;;;;;;;;;;;;;22.31;58.58;98259.59;589064;240;64690;-70
2022/10/28 08:50:50;;;;;;;;;;;;;;;22.32;57.91;98249.70;589749;240;62862;-73
2022/10/28 08:53:34;;;;;;;;;;;;;;;22.31;57.76;98254.23;589614;240;65085;-70
2022/10/28 08:56:06;;;;;;;;;;;;;;;22.32;57.86;98250.52;589028;240;67341;-71
2022/10/28 08:58:36;;;;;;;;;;;;;;;22.33;58.70;98249.44;589735;240;62778;-71
2022/10/28 09:01:05;;;;;;;;;;;;;;;22.33;59.87;98246.77;589970;240;67208;-71
2022/10/28 09:03:34;;;;;;;;;;;;;;;22.32;57.28;98250.52;587723;240;67042;-71
2022/10/28 09:06:03;;;;;;;;;;;;;;;22.33;57.52;98240.61;586845;241;65227;-71
2022/10/28 09:08:32;;;;;;;;;;;;;;;22.33;59.58;98236.05;586887;241;65112;-71
2022/10/28 09:11:17;;;;;;;;;;;;;;;22.33;59.30;98232.57;586809;241;66907;-70
2022/10/28 09:14:03;;;;;;;;;;;;;;;22.35;58.24;98233.94;586938;241;65264;-71
2022/10/28 09:16:35;;;;;;;;;;;;;;;22.36;56.67;98232.87;586989;241;67027;-71
2022/10/28 09:19:04;;;;;;;;;;;;;;;22.38;56.89;98232.63;585969;241;67086;-69
2022/10/28 09:21:32;;;;;;;;;;;;;;;22.38;57.07;98230.77;586882;241;63864;-70
2022/10/28 09:24:01;;;;;;;;;;;;;;;22.39;57.27;98223.53;586884;241;65347;-69
2022/10/28 09:26:36;;;;;;;;;;;;;;;22.37;57.52;98221.12;585964;241;67079;-72
2022/10/28 09:29:20;;;;;;;;;;;;;;;22.38;57.28;98222.73;583057;241;65176;-71
2022/10/28 09:31:52;;;;;;;;;;;;;;;22.41;58.39;98232.13;582148;241;64900;-70
2022/10/28 09:34:30;;;;;;;;;;;;;;;22.39;57.69;98221.66;578585;244;66893;-69
2022/10/28 09:37:01;;;;;;;;;;;;;;;22.40;57.49;98214.45;578542;244;62856;-73
2022/10/28 09:39:30;;;;;;;;;;;;;;;22.41;57.31;98209.90;578597;244;67153;-71
2022/10/28 09:41:59;;;;;;;;;;;;;;;22.43;57.16;98205.11;578586;245;67453;-71
2022/10/28 09:44:37;;;;;;;;;;;;;;;22.43;56.72;98205.11;578672;245;65374;-70
2022/10/28 09:47:06;;;;;;;;;;;;;;;22.43;56.94;98195.20;578567;244;67155;-71
2022/10/28 09:49:35;;;;;;;;;;;;;;;22.43;57.62;98192.52;578514;244;64849;-71
2022/10/28 09:52:10;;;;;;;;;;;;;;;22.43;57.11;98192.52;578666;245;62768;-71
2022/10/28 09:54:39;;;;;;;;;;;;;;;22.44;57.19;98190.64;578577;245;64860;-72
2022/10/28 09:57:07;;;;;;;;;;;;;;;22.45;57.62;98190.38;581324;241;65087;-71
2022/10/28 09:59:34;;;;;;;;;;;;;;;22.46;57.63;98185.85;586925;241;62839;-72
2022/10/28 10:02:03;;;;;;;;;;;;;;;22.46;57.41;98185.85;586823;241;65752;-69
2022/10/28 10:04:30;;;;;;;;;;;;;;;22.46;57.58;98183.17;586934;241;64596;-70
2022/10/28 10:07:05;;;;;;;;;;;;;;;22.46;58.29;98181.30;586823;241;64879;-71
2022/10/28 10:09:34;;;;;;;;;;;;;;;22.47;57.55;98182.09;586807;241;67937;-73
2022/10/28 10:12:03;;;;;;;;;;;;;;;22.48;58.10;98183.70;586870;241;65213;-69
2022/10/28 10:14:32;;;;;;;;;;;;;;;22.45;58.91;98176.98;586872;241;62911;-69
2022/10/28 10:17:04;;;;;;;;;;;;;;;22.43;59.59;98172.97;586836;241;64704;-69
2022/10/28 10:19:50;;;;;;;;;;;;;;;22.41;58.33;98175.08;586808;241;66886;-69
2022/10/28 10:22:22;;;;;;;;;;;;;;;22.39;57.60;98178.00;584269;241;65447;-69
2022/10/28 10:24:49;;;;;;;;;;;;;;;22.37;58.25;98172.08;580879;241;67192;-69
2022/10/28 10:27:18;;;;;;;;;;;;;;;22.36;58.29;98171.27;582226;241;66869;-70
2022/10/28 10:29:47;;;;;;;;;;;;;;;22.35;58.84;98161.63;582214;241;62748;-69
2022/10/28 10:32:28;;;;;;;;;;;;;;;22.34;58.46;98160.02;577418;241;64431;-70
2022/10/28 10:34:57;;;;;;;;;;;;;;;22.34;59.68;98170.73;576408;246;67619;-68
2022/10/28 10:37:25;;;;;;;;;;;;;;;22.33;58.83;98161.06;576342;246;65445;-69
2022/10/28 10:39:57;;;;;;;;;;;;;;;22.32;56.83;98159.46;576430;246;67386;-69
2022/10/28 10:42:26;;;;;;;;;;;;;;;22.32;58.39;98158.66;576341;245;67141;-69
2022/10/28 10:44:58;;;;;;;;;;;;;;;22.31;58.01;98155.14;578010;241;64974;-70
2022/10/28 10:47:26;;;;;;;;;;;;;;;22.31;58.09;98157.83;583056;241;67116;-70
2022/10/28 10:49:55;;;;;;;;;;;;;;;22.31;57.88;98154.34;581865;241;67068;-70
2022/10/28 10:52:24;;;;;;;;;;;;;;;22.31;58.54;98152.47;581659;241;64986;-70
2022/10/28 10:55:06;;;;;;;;;;;;;;;22.30;57.77;98145.50;582832;241;65084;-70
2022/10/28 10:57:34;;;;;;;;;;;;;;;22.30;57.83;98150.86;586851;241;66970;-71
2022/10/28 11:00:01;;;;;;;;;;;;;;;22.29;57.96;98143.90;586941;241;64893;-69
2022/10/28 11:02:31;;;;;;;;;;;;;;;22.24;57.62;98135.81;586831;241;67320;-68
2022/10/28 11:05:00;;;;;;;;;;;;;;;22.29;57.32;98125.16;586884;241;67079;-69
2022/10/28 11:07:28;;;;;;;;;;;;;;;22.28;58.00;98134.23;586853;241;65144;-69
2022/10/28 11:09:56;;;;;;;;;;;;;;;22.28;58.46;98136.10;586876;241;64614;-72
2022/10/28 11:12:33;;;;;;;;;;;;;;;22.28;57.82;98142.27;586846;241;64853;-69
2022/10/28 11:15:01;;;;;;;;;;;;;;;22.28;57.90;98136.91;586962;241;64812;-69
2022/10/28 11:17:33;;;;;;;;;;;;;;;22.29;57.00;98133.19;586890;241;67092;-70
2022/10/28 11:20:01;;;;;;;;;;;;;;;22.31;56.77;98130.23;586803;241;66683;-69
2022/10/28 11:22:41;;;;;;;;;;;;;;;22.32;56.75;98129.20;586435;241;64908;-69
2022/10/28 11:25:26;;;;;;;;;;;;;;;22.32;57.10;98134.55;586634;241;64894;-68
2022/10/28 11:28:12;;;;;;;;;;;;;;;22.31;57.01;98131.05;586821;241;65533;-69
2022/10/28 11:30:44;;;;;;;;;;;;;;;22.31;56.81;98131.05;586947;241;65143;-73
2022/10/28 11:33:19;;;;;;;;;;;;;;;22.32;57.87;98132.68;586838;241;67083;-70
2022/10/28 11:35:57;;;;;;;;;;;;;;;22.32;57.42;98127.33;586903;241;67008;-69
2022/10/28 11:38:42;;;;;;;;;;;;;;;22.32;57.17;98129.20;586855;241;62759;-71
2022/10/28 11:41:17;;;;;;;;;;;;;;;22.32;58.39;98127.33;586852;241;67101;-71
2022/10/28 11:43:46;;;;;;;;;;;;;;;22.31;58.11;98128.36;586776;241;64876;-71
2022/10/28 11:46:16;;;;;;;;;;;;;;;22.31;57.46;98128.36;586860;241;63211;-72
2022/10/28 11:51:26;;;;;;;;;;;;;;;22.30;57.98;98117.92;603503;235;37471;-71
2022/10/28 11:53:57;;;;;;;;;;;;;;;22.31;57.44;98122.20;603611;235;62776;-71
2022/10/28 11:56:39;;;;;;;;;;;;;;;22.29;57.24;98111.77;603433;235;67362;-72
2022/10/28 11:59:14;;;;;;;;;;;;;;;22.30;58.12;98110.69;600973;235;65005;-72
2022/10/28 12:01:51;;;;;;;;;;;;;;;22.30;58.19;98118.73;598276;236;63780;-70
2022/10/28 12:04:26;;;;;;;;;;;;;;;22.31;57.76;98114.98;600078;236;64901;-71
2022/10/28 12:06:56;;;;;;;;;;;;;;;22.31;57.41;98119.53;600701;232;66985;-72
2022/10/28 12:09:34;;;;;;;;;;;;;;;22.31;57.55;98114.17;593878;236;62776;-74
2022/10/28 12:12:03;;;;;;;;;;;;;;;22.29;58.75;98118.97;600367;236;64422;-71
2022/10/28 12:14:47;;;;;;;;;;;;;;;22.30;58.05;98112.56;600455;235;66760;-72
2022/10/28 12:17:34;;;;;;;;;;;;;;;22.29;57.75;98105.58;600548;236;63069;-73
2022/10/28 12:20:09;;;;;;;;;;;;;;;22.30;57.76;98113.37;600622;236;64521;-74
2022/10/28 12:22:38;;;;;;;;;;;;;;;22.30;57.67;98108.02;599636;236;66733;-75
2022/10/28 12:25:07;;;;;;;;;;;;;;;22.29;57.79;98106.41;600460;236;63064;-73
2022/10/28 12:27:36;;;;;;;;;;;;;;;22.30;57.92;98112.56;600500;236;64575;-73
2022/10/28 12:30:22;;;;;;;;;;;;;;;22.29;58.42;98103.73;600501;236;45327;-77
2022/10/28 12:32:51;;;;;;;;;;;;;;;22.28;59.81;98103.97;600679;236;66045;-77
2022/10/28 12:35:20;;;;;;;;;;;;;;;22.28;58.30;98104.77;600685;236;64766;-76
2022/10/28 12:38:04;;;;;;;;;;;;;;;22.28;58.06;98096.73;600641;236;66857;-77
2022/10/28 12:40:33;;;;;;;;;;;;;;;22.27;58.22;98097.81;600543;236;65201;-73
2022/10/28 12:43:11;;;;;;;;;;;;;;;22.28;57.87;98095.94;600619;236;64910;-72
2022/10/28 12:45:39;;;;;;;;;;;;;;;22.27;57.75;98095.13;600535;236;65117;-73
2022/10/28 12:48:11;;;;;;;;;;;;;;;22.27;57.14;98100.49;600683;236;62851;-73
2022/10/28 12:50:52;;;;;;;;;;;;;;;22.27;57.41;98083.62;600455;236;67153;-73
2022/10/28 12:53:37;;;;;;;;;;;;;;;22.28;58.20;98093.26;600626;236;67030;-73
2022/10/28 12:56:10;;;;;;;;;;;;;;;22.28;57.38;98093.26;600493;236;65143;-75
2022/10/28 12:58:51;;;;;;;;;;;;;;;22.27;58.15;98091.66;600392;236;64927;-74
2022/10/28 13:01:20;;;;;;;;;;;;;;;22.26;58.96;98090.85;600621;236;64762;-76
2022/10/28 13:03:49;;;;;;;;;;;;;;;22.27;57.60;98089.78;600664;236;63083;-77
2022/10/28 13:06:18;;;;;;;;;;;;;;;22.27;59.28;98087.10;600350;236;64338;-78